createdAt,value
2022-10-07T00:04:04.950Z,9.80
2022-10-07T00:08:14.292Z,9.60
2022-10-07T00:12:25.256Z,9.50
2022-10-07T00:16:36.477Z,9.40
2022-10-07T00:20:46.134Z,9.30
2022-10-07T00:24:55.374Z,9.30
2022-10-07T00:29:07.312Z,9.20
2022-10-07T00:33:16.613Z,9.20
2022-10-07T00:37:25.944Z,9.30
2022-10-07T00:41:38.002Z,9.20
2022-10-07T00:45:49.137Z,9.20
2022-10-07T00:50:04.440Z,9.20
2022-10-07T00:54:17.026Z,9.30
2022-10-07T00:58:27.133Z,9.20
2022-10-07T01:02:38.497Z,9.10
2022-10-07T01:06:47.748Z,9.00
2022-10-07T01:11:14.349Z,9.00
2022-10-07T01:15:33.666Z,8.90
2022-10-07T01:20:33.747Z,8.80
2022-10-07T01:24:46.886Z,8.70
2022-10-07T01:29:05.207Z,8.80
2022-10-07T01:33:18.688Z,8.70
2022-10-07T01:37:33.207Z,8.70
2022-10-07T01:41:43.197Z,8.70
2022-10-07T01:45:57.039Z,8.60
2022-10-07T01:50:12.866Z,8.60
2022-10-07T01:54:33.889Z,8.60
2022-10-07T01:59:07.288Z,8.60
2022-10-07T02:03:40.439Z,8.60
2022-10-07T02:08:05.165Z,8.60
2022-10-07T02:12:21.660Z,8.60
2022-10-07T02:16:35.869Z,8.60
2022-10-07T02:20:49.971Z,8.60
2022-10-07T02:25:01.129Z,8.60
2022-10-07T02:29:12.545Z,8.60
2022-10-07T02:33:22.426Z,8.60
2022-10-07T02:37:38.287Z,8.60
2022-10-07T02:41:53.929Z,8.70
2022-10-07T02:46:08.439Z,8.70
2022-10-07T02:50:22.825Z,8.70
2022-10-07T02:54:39.007Z,8.70
2022-10-07T02:58:49.287Z,8.70
2022-10-07T03:03:01.929Z,8.70
2022-10-07T03:07:14.194Z,8.70
2022-10-07T03:11:24.730Z,8.70
2022-10-07T03:15:41.143Z,8.80
2022-10-07T03:19:51.348Z,8.80
2022-10-07T03:24:05.097Z,8.80
2022-10-07T03:28:16.465Z,8.60
2022-10-07T03:32:25.968Z,8.60
2022-10-07T03:36:35.031Z,8.70
2022-10-07T03:40:46.646Z,8.70
2022-10-07T03:44:57.409Z,8.50
2022-10-07T03:49:06.608Z,8.40
2022-10-07T03:53:15.751Z,8.30
2022-10-07T03:57:42.119Z,8.40
2022-10-07T04:01:53.277Z,8.40
2022-10-07T04:06:03.691Z,8.50
2022-10-07T04:10:13.987Z,8.40
2022-10-07T04:14:22.985Z,8.30
2022-10-07T04:18:33.665Z,8.00
2022-10-07T04:22:43.528Z,7.90
2022-10-07T04:26:52.628Z,7.80
2022-10-07T04:31:05.906Z,7.90
2022-10-07T04:35:16.789Z,8.10
2022-10-07T04:39:42.730Z,8.20
2022-10-07T04:43:57.952Z,8.10
2022-10-07T04:48:07.988Z,7.80
2022-10-07T04:52:18.565Z,7.60
2022-10-07T04:56:28.749Z,7.50
2022-10-07T05:00:42.806Z,7.50
2022-10-07T05:04:51.985Z,7.50
2022-10-07T05:09:02.887Z,7.60
2022-10-07T05:13:14.326Z,7.70
2022-10-07T05:17:23.566Z,7.70
2022-10-07T05:21:33.744Z,7.70
2022-10-07T05:25:45.250Z,7.70
2022-10-07T05:29:54.327Z,7.70
2022-10-07T05:34:03.706Z,7.60
2022-10-07T05:38:13.507Z,7.60
2022-10-07T05:42:24.149Z,7.40
2022-10-07T05:46:33.508Z,7.40
2022-10-07T05:50:42.645Z,7.40
2022-10-07T05:54:52.107Z,7.40
2022-10-07T05:59:02.965Z,7.50
2022-10-07T06:03:12.210Z,7.60
2022-10-07T06:07:24.371Z,7.50
2022-10-07T06:11:53.082Z,7.50
2022-10-07T06:16:10.974Z,7.50
2022-10-07T06:20:20.161Z,7.50
2022-10-07T06:24:29.126Z,7.60
2022-10-07T06:28:39.462Z,7.70
2022-10-07T06:32:49.964Z,7.80
2022-10-07T06:36:58.983Z,7.80
2022-10-07T06:41:08.321Z,7.80
2022-10-07T06:45:17.441Z,7.80
2022-10-07T06:49:28.220Z,7.70
2022-10-07T06:53:37.259Z,7.70
2022-10-07T06:57:46.865Z,7.80
2022-10-07T07:01:56.029Z,7.80
2022-10-07T07:06:08.184Z,7.80
2022-10-07T07:10:17.262Z,7.80
2022-10-07T07:14:27.392Z,7.80
2022-10-07T07:18:36.582Z,7.90
2022-10-07T07:22:47.322Z,7.90
2022-10-07T07:26:56.541Z,8.00
2022-10-07T07:31:10.440Z,8.10
2022-10-07T07:35:19.602Z,8.20
2022-10-07T07:39:30.182Z,8.40
2022-10-07T07:43:39.186Z,8.60
2022-10-07T07:47:49.825Z,8.90
2022-10-07T07:51:58.969Z,9.20
2022-10-07T07:56:10.580Z,9.70
2022-10-07T08:00:20.103Z,10.00
2022-10-07T08:04:29.923Z,10.20
2022-10-07T08:08:39.020Z,10.40
2022-10-07T08:12:49.640Z,10.70
2022-10-07T08:16:59.401Z,10.90
2022-10-07T08:21:09.461Z,11.20
2022-10-07T08:25:18.701Z,11.40
2022-10-07T08:29:30.608Z,11.60
2022-10-07T08:33:41.322Z,11.90
2022-10-07T08:37:50.401Z,12.10
2022-10-07T08:42:08.861Z,12.40
2022-10-07T08:46:21.636Z,12.70
2022-10-07T08:50:38.282Z,13.00
2022-10-07T08:54:47.262Z,13.30
2022-10-07T08:59:21.763Z,13.50
2022-10-07T09:03:40.501Z,13.80
2022-10-07T09:07:54.177Z,13.90
2022-10-07T09:12:05.364Z,14.10
2022-10-07T09:16:21.741Z,14.40
2022-10-07T09:20:38.320Z,14.50
2022-10-07T09:24:49.448Z,14.70
2022-10-07T09:29:00.344Z,14.90
2022-10-07T09:33:16.141Z,14.90
2022-10-07T09:37:28.379Z,15.00
2022-10-07T09:41:39.274Z,15.10
2022-10-07T09:45:48.862Z,15.20
2022-10-07T09:50:00.101Z,15.30
2022-10-07T09:54:22.461Z,15.20
2022-10-07T09:58:33.083Z,15.30
2022-10-07T10:02:48.179Z,15.50
2022-10-07T10:07:01.106Z,15.60
2022-10-07T10:11:28.518Z,15.80
2022-10-07T10:15:43.282Z,15.90
2022-10-07T10:19:52.480Z,16.00
2022-10-07T10:24:04.056Z,16.00
2022-10-07T10:28:21.601Z,16.20
2022-10-07T10:33:01.497Z,16.30
2022-10-07T10:37:18.592Z,16.30
2022-10-07T10:41:36.041Z,16.40
2022-10-07T10:46:00.343Z,16.50
2022-10-07T10:50:17.822Z,16.50
2022-10-07T10:54:33.097Z,16.60
2022-10-07T10:58:58.433Z,16.70
2022-10-07T11:03:28.421Z,16.80
2022-10-07T11:07:42.542Z,16.90
2022-10-07T11:11:52.645Z,17.00
2022-10-07T11:16:08.375Z,17.10
2022-10-07T11:20:25.625Z,16.90
2022-10-07T11:24:40.903Z,17.00
2022-10-07T11:28:52.663Z,17.10
2022-10-07T11:33:07.200Z,17.30
2022-10-07T11:37:26.442Z,17.60
2022-10-07T11:41:42.220Z,17.40
2022-10-07T11:45:55.784Z,17.30
2022-10-07T11:50:09.565Z,17.50
2022-10-07T11:54:23.926Z,17.60
2022-10-07T11:58:36.742Z,17.50
2022-10-07T12:02:47.583Z,17.60
2022-10-07T12:07:34.061Z,17.30
2022-10-07T12:11:49.604Z,17.30
2022-10-07T12:16:43.148Z,17.30
2022-10-07T12:21:02.162Z,17.50
2022-10-07T12:25:32.651Z,17.60
2022-10-07T12:30:02.638Z,17.60
2022-10-07T12:34:13.421Z,17.50
2022-10-07T12:38:30.821Z,17.60
2022-10-07T12:42:47.657Z,17.60
2022-10-07T12:47:01.762Z,17.60
2022-10-07T12:51:18.682Z,17.60
2022-10-07T12:55:33.783Z,17.50
2022-10-07T12:59:58.601Z,17.40
2022-10-07T13:04:30.302Z,17.50
2022-10-07T13:09:08.581Z,17.60
2022-10-07T13:13:22.984Z,17.50
2022-10-07T13:17:43.042Z,17.30
2022-10-07T13:22:00.066Z,17.40
2022-10-07T13:26:09.962Z,17.30
2022-10-07T13:30:39.043Z,17.20
2022-10-07T13:34:48.151Z,17.30
2022-10-07T13:39:14.082Z,17.20
2022-10-07T13:43:26.517Z,17.10
2022-10-07T13:47:36.610Z,17.30
2022-10-07T13:51:45.722Z,17.40
2022-10-07T13:56:07.801Z,17.50
2022-10-07T14:00:17.683Z,17.60
2022-10-07T14:04:28.041Z,17.70
2022-10-07T14:08:54.742Z,17.80
2022-10-07T14:13:07.485Z,17.80
2022-10-07T14:17:34.460Z,17.70
2022-10-07T14:21:43.961Z,17.70
2022-10-07T14:25:57.042Z,17.80
2022-10-07T14:30:59.005Z,17.70
2022-10-07T14:35:21.925Z,17.70
2022-10-07T14:39:35.422Z,17.70
2022-10-07T14:43:46.517Z,17.60
2022-10-07T14:47:55.861Z,17.60
2022-10-07T14:52:07.324Z,17.60
2022-10-07T14:56:21.342Z,17.70
2022-10-07T15:00:35.997Z,17.60
2022-10-07T15:04:48.712Z,17.50
2022-10-07T15:09:00.606Z,17.30
2022-10-07T15:13:13.259Z,17.40
2022-10-07T15:17:23.144Z,17.40
2022-10-07T15:21:32.781Z,17.40
2022-10-07T15:25:44.361Z,17.40
2022-10-07T15:29:54.042Z,17.50
2022-10-07T15:34:03.041Z,17.40
2022-10-07T15:38:12.362Z,17.30
2022-10-07T15:42:25.263Z,17.20
2022-10-07T15:46:34.307Z,17.00
2022-10-07T15:50:48.944Z,17.10
2022-10-07T15:54:58.316Z,17.10
2022-10-07T15:59:09.523Z,17.10
2022-10-07T16:03:18.802Z,17.00
2022-10-07T16:07:30.521Z,16.90
2022-10-07T16:11:39.681Z,17.00
2022-10-07T16:15:59.426Z,16.90
2022-10-07T16:20:11.533Z,16.80
2022-10-07T16:24:21.962Z,16.70
2022-10-07T16:28:48.102Z,16.70
2022-10-07T16:32:58.907Z,16.60
2022-10-07T16:37:07.940Z,16.60
2022-10-07T16:41:17.103Z,16.50
2022-10-07T16:45:26.263Z,16.30
2022-10-07T16:49:37.163Z,16.20
2022-10-07T16:53:49.201Z,16.20
2022-10-07T16:57:58.344Z,16.10
2022-10-07T17:02:07.324Z,16.10
2022-10-07T17:06:19.925Z,16.00
2022-10-07T17:10:29.261Z,15.90
2022-10-07T17:14:38.923Z,15.90
2022-10-07T17:18:48.441Z,15.80
2022-10-07T17:22:59.162Z,15.70
2022-10-07T17:27:09.220Z,15.60
2022-10-07T17:31:19.541Z,15.60
2022-10-07T17:35:28.742Z,15.50
2022-10-07T17:39:39.362Z,15.40
2022-10-07T17:43:49.557Z,15.40
2022-10-07T17:48:19.622Z,15.40
2022-10-07T17:52:38.702Z,15.30
2022-10-07T17:56:49.400Z,15.30
2022-10-07T18:00:59.531Z,15.20
2022-10-07T18:05:09.585Z,15.00
2022-10-07T18:09:19.725Z,15.00
2022-10-07T18:13:47.486Z,14.90
2022-10-07T18:17:57.803Z,14.90
2022-10-07T18:22:07.003Z,14.80
2022-10-07T18:26:16.107Z,14.70
2022-10-07T18:30:26.645Z,14.60
2022-10-07T18:34:35.824Z,14.50
2022-10-07T18:38:46.444Z,14.40
2022-10-07T18:42:55.724Z,14.40
2022-10-07T18:47:06.503Z,14.40
2022-10-07T18:51:18.146Z,14.30
2022-10-07T18:55:27.387Z,14.20
2022-10-07T18:59:36.546Z,14.20
2022-10-07T19:03:49.089Z,14.10
2022-10-07T19:07:58.104Z,14.10
2022-10-07T19:12:27.885Z,14.00
2022-10-07T19:16:38.168Z,14.00
2022-10-07T19:20:58.363Z,13.90
2022-10-07T19:25:25.445Z,13.90
2022-10-07T19:29:34.604Z,13.90
2022-10-07T19:33:44.347Z,13.90
2022-10-07T19:37:55.006Z,13.90
2022-10-07T19:42:04.768Z,13.90
2022-10-07T19:46:14.380Z,13.80
2022-10-07T19:50:24.524Z,13.80
2022-10-07T19:54:36.307Z,13.70
2022-10-07T19:58:49.925Z,13.70
2022-10-07T20:02:59.545Z,13.70
2022-10-07T20:07:08.785Z,13.70
2022-10-07T20:11:19.503Z,13.60
2022-10-07T20:15:28.925Z,13.50
2022-10-07T20:19:38.204Z,13.50
2022-10-07T20:23:49.563Z,13.50
2022-10-07T20:28:00.232Z,13.40
2022-10-07T20:32:09.530Z,13.40
2022-10-07T20:36:21.643Z,13.30
2022-10-07T20:40:47.824Z,13.30
2022-10-07T20:44:59.206Z,13.30
2022-10-07T20:49:12.744Z,13.30
2022-10-07T20:53:24.770Z,13.30
2022-10-07T20:58:11.339Z,13.10
2022-10-07T21:02:23.538Z,12.90
2022-10-07T21:06:32.730Z,12.80
2022-10-07T21:10:41.862Z,12.70
2022-10-07T21:14:51.553Z,12.70
2022-10-07T21:19:02.966Z,12.70
2022-10-07T21:23:12.156Z,12.70
2022-10-07T21:27:21.222Z,12.80
2022-10-07T21:31:32.923Z,12.80
2022-10-07T21:35:43.687Z,12.60
2022-10-07T21:39:52.733Z,12.40
2022-10-07T21:44:02.692Z,12.30
2022-10-07T21:48:11.866Z,12.20
2022-10-07T21:52:22.736Z,12.20
2022-10-07T21:56:33.444Z,12.30
2022-10-07T22:00:42.886Z,12.30
2022-10-07T22:04:57.247Z,12.40
2022-10-07T22:09:07.974Z,12.40
2022-10-07T22:13:17.055Z,12.40
2022-10-07T22:17:26.537Z,12.30
2022-10-07T22:21:40.471Z,12.10
2022-10-07T22:26:15.680Z,12.10
2022-10-07T22:30:25.367Z,12.00
2022-10-07T22:34:53.182Z,12.00
2022-10-07T22:39:02.666Z,12.00
2022-10-07T22:43:14.002Z,12.10
2022-10-07T22:47:23.599Z,12.10
2022-10-07T22:51:33.013Z,12.20
2022-10-07T22:55:42.307Z,12.10
2022-10-07T22:59:54.262Z,12.10
2022-10-07T23:04:04.962Z,12.10
2022-10-07T23:08:15.464Z,12.00
2022-10-07T23:12:25.018Z,12.00
2022-10-07T23:16:36.411Z,12.00
2022-10-07T23:20:45.578Z,12.00
2022-10-07T23:24:56.275Z,12.10
2022-10-07T23:29:08.322Z,12.10
2022-10-07T23:33:19.550Z,12.20
2022-10-07T23:37:28.963Z,12.30
2022-10-07T23:41:38.971Z,12.30
2022-10-07T23:45:48.164Z,12.30
2022-10-07T23:49:58.787Z,12.40
2022-10-07T23:54:08.258Z,12.40
2022-10-07T23:58:18.506Z,12.50
